createdAt,value
2022-10-30T00:00:09.840Z,499.67
2022-10-30T00:00:19.846Z,499.65
2022-10-30T00:00:29.842Z,499.64
2022-10-30T00:00:39.841Z,499.62
2022-10-30T00:00:49.848Z,499.61
2022-10-30T00:00:59.844Z,499.57
2022-10-30T00:01:09.844Z,499.57
2022-10-30T00:01:19.933Z,499.55
2022-10-30T00:01:29.958Z,499.50
2022-10-30T00:01:39.895Z,499.47
2022-10-30T00:01:49.900Z,499.45
2022-10-30T00:02:00.027Z,499.45
2022-10-30T00:02:10.069Z,499.47
2022-10-30T00:02:19.980Z,499.52
2022-10-30T00:02:29.950Z,499.54
2022-10-30T00:02:39.879Z,499.56
2022-10-30T00:02:49.941Z,499.56
2022-10-30T00:03:00.331Z,499.56
2022-10-30T00:03:09.910Z,499.68
2022-10-30T00:03:19.926Z,499.62
2022-10-30T00:03:29.855Z,499.70
2022-10-30T00:03:39.855Z,499.73
2022-10-30T00:03:49.916Z,499.77
2022-10-30T00:03:59.856Z,499.74
2022-10-30T00:04:09.857Z,499.74
2022-10-30T00:04:19.860Z,499.67
2022-10-30T00:04:29.935Z,499.77
2022-10-30T00:04:39.861Z,499.84
2022-10-30T00:04:49.862Z,499.89
2022-10-30T00:04:59.863Z,499.91
2022-10-30T00:05:09.863Z,499.89
2022-10-30T00:05:19.865Z,499.87
2022-10-30T00:05:29.864Z,499.90
2022-10-30T00:05:39.869Z,499.88
2022-10-30T00:05:49.867Z,499.85
2022-10-30T00:05:59.867Z,499.86
2022-10-30T00:06:09.942Z,499.85
2022-10-30T00:06:19.877Z,499.86
2022-10-30T00:06:29.893Z,499.89
2022-10-30T00:06:39.874Z,499.94
2022-10-30T00:06:49.873Z,499.92
2022-10-30T00:06:59.872Z,499.88
2022-10-30T00:07:09.902Z,499.83
2022-10-30T00:07:19.875Z,499.90
2022-10-30T00:07:29.877Z,499.90
2022-10-30T00:07:39.877Z,499.95
2022-10-30T00:07:49.877Z,499.91
2022-10-30T00:08:00.193Z,499.96
2022-10-30T00:08:09.879Z,500.00
2022-10-30T00:08:19.882Z,499.94
2022-10-30T00:08:29.866Z,499.91
2022-10-30T00:08:39.881Z,499.84
2022-10-30T00:08:50.832Z,500.02
2022-10-30T00:08:59.883Z,500.01
2022-10-30T00:09:09.884Z,499.96
2022-10-30T00:09:19.870Z,500.01
2022-10-30T00:09:29.887Z,500.00
2022-10-30T00:09:39.887Z,499.92
2022-10-30T00:09:49.889Z,499.94
2022-10-30T00:09:59.889Z,499.93
2022-10-30T00:10:09.892Z,499.91
2022-10-30T00:10:19.891Z,499.94
2022-10-30T00:10:29.890Z,499.87
2022-10-30T00:10:39.894Z,499.83
2022-10-30T00:10:49.893Z,499.86
2022-10-30T00:10:59.891Z,499.85
2022-10-30T00:11:09.895Z,499.93
2022-10-30T00:11:19.894Z,499.91
2022-10-30T00:11:29.896Z,499.84
2022-10-30T00:11:39.895Z,499.86
2022-10-30T00:11:49.899Z,499.78
2022-10-30T00:11:59.898Z,499.75
2022-10-30T00:12:09.912Z,499.78
2022-10-30T00:12:19.900Z,499.75
2022-10-30T00:12:29.901Z,499.74
2022-10-30T00:12:39.903Z,499.77
2022-10-30T00:12:49.903Z,499.76
2022-10-30T00:12:59.901Z,499.76
2022-10-30T00:13:09.905Z,499.78
2022-10-30T00:13:19.909Z,499.76
2022-10-30T00:13:29.907Z,499.72
2022-10-30T00:13:39.911Z,499.78
2022-10-30T00:13:49.937Z,499.83
2022-10-30T00:13:59.912Z,499.77
2022-10-30T00:14:09.908Z,499.79
2022-10-30T00:14:19.921Z,499.81
2022-10-30T00:14:29.910Z,499.85
2022-10-30T00:14:39.914Z,499.79
2022-10-30T00:14:49.913Z,499.82
2022-10-30T00:14:59.912Z,499.87
2022-10-30T00:15:09.915Z,499.88
2022-10-30T00:15:19.916Z,499.93
2022-10-30T00:15:29.917Z,499.91
2022-10-30T00:15:39.915Z,499.85
2022-10-30T00:15:49.918Z,499.89
2022-10-30T00:15:59.919Z,499.80
2022-10-30T00:16:09.923Z,499.90
2022-10-30T00:16:19.921Z,499.91
2022-10-30T00:16:29.922Z,499.88
2022-10-30T00:16:39.921Z,499.94
2022-10-30T00:16:49.925Z,499.86
2022-10-30T00:16:59.926Z,499.89
2022-10-30T00:17:09.939Z,499.88
2022-10-30T00:17:19.929Z,499.85
2022-10-30T00:17:29.927Z,499.80
2022-10-30T00:17:39.928Z,499.83
2022-10-30T00:17:49.926Z,499.83
2022-10-30T00:18:00.463Z,499.83
2022-10-30T00:18:09.929Z,499.82
2022-10-30T00:18:19.929Z,499.85
2022-10-30T00:18:29.930Z,499.83
2022-10-30T00:18:39.931Z,499.84
2022-10-30T00:18:49.945Z,499.84
2022-10-30T00:18:59.932Z,499.83
2022-10-30T00:19:09.933Z,499.84
2022-10-30T00:19:19.932Z,499.91
2022-10-30T00:19:29.937Z,499.90
2022-10-30T00:19:39.939Z,499.94
2022-10-30T00:19:49.943Z,499.98
2022-10-30T00:19:59.938Z,499.93
2022-10-30T00:20:09.942Z,499.93
2022-10-30T00:20:19.939Z,499.96
2022-10-30T00:20:29.941Z,500.01
2022-10-30T00:20:39.943Z,500.00
2022-10-30T00:20:51.515Z,499.99
2022-10-30T00:21:09.945Z,500.07
2022-10-30T00:21:19.944Z,500.03
2022-10-30T00:21:29.950Z,500.07
2022-10-30T00:21:39.948Z,500.10
2022-10-30T00:21:49.948Z,500.15
2022-10-30T00:22:18.107Z,500.06
2022-10-30T00:22:28.107Z,500.10
2022-10-30T00:22:38.107Z,500.09
2022-10-30T00:22:48.124Z,500.09
2022-10-30T00:22:58.426Z,500.12
2022-10-30T00:23:08.114Z,500.16
2022-10-30T00:23:18.112Z,500.20
2022-10-30T00:23:28.113Z,500.21
2022-10-30T00:23:38.119Z,500.21
2022-10-30T00:23:48.115Z,500.24
2022-10-30T00:23:58.116Z,500.18
2022-10-30T00:24:08.120Z,500.25
2022-10-30T00:24:18.117Z,500.24
2022-10-30T00:24:28.118Z,500.23
2022-10-30T00:24:38.120Z,500.33
2022-10-30T00:24:48.120Z,500.32
2022-10-30T00:24:58.118Z,500.31
2022-10-30T00:25:08.119Z,500.32
2022-10-30T00:25:18.124Z,500.30
2022-10-30T00:25:28.123Z,500.40
2022-10-30T00:25:38.123Z,500.44
2022-10-30T00:25:48.128Z,500.42
2022-10-30T00:25:58.126Z,500.42
2022-10-30T00:26:08.129Z,500.38
2022-10-30T00:26:18.126Z,500.40
2022-10-30T00:26:28.131Z,500.45
2022-10-30T00:26:38.129Z,500.45
2022-10-30T00:26:48.128Z,500.41
2022-10-30T00:26:58.127Z,500.43
2022-10-30T00:27:08.115Z,500.41
2022-10-30T00:27:18.137Z,500.49
2022-10-30T00:27:28.131Z,500.48
2022-10-30T00:27:38.130Z,500.52
2022-10-30T00:27:48.130Z,500.49
2022-10-30T00:27:58.138Z,500.55
2022-10-30T00:28:08.134Z,500.57
2022-10-30T00:28:18.132Z,500.51
2022-10-30T00:28:28.145Z,500.48
2022-10-30T00:28:38.135Z,500.54
2022-10-30T00:28:48.132Z,500.55
2022-10-30T00:28:58.134Z,500.50
2022-10-30T00:29:08.135Z,500.42
2022-10-30T00:29:18.134Z,500.45
2022-10-30T00:29:28.139Z,500.48
2022-10-30T00:29:38.137Z,500.52
2022-10-30T00:29:48.138Z,500.50
2022-10-30T00:29:58.139Z,500.53
2022-10-30T00:30:08.141Z,500.55
2022-10-30T00:30:18.139Z,500.57
2022-10-30T00:30:28.143Z,500.54
2022-10-30T00:30:38.139Z,500.58
2022-10-30T00:30:48.145Z,500.57
2022-10-30T00:30:58.130Z,500.55
2022-10-30T00:31:08.146Z,500.67
2022-10-30T00:31:18.157Z,500.64
2022-10-30T00:31:28.145Z,500.59
2022-10-30T00:31:38.148Z,500.61
2022-10-30T00:31:48.148Z,500.69
2022-10-30T00:31:58.147Z,500.69
2022-10-30T00:32:08.147Z,500.71
2022-10-30T00:32:18.150Z,500.74
2022-10-30T00:32:28.148Z,500.82
2022-10-30T00:32:38.148Z,500.78
2022-10-30T00:32:48.147Z,500.76
2022-10-30T00:32:58.404Z,500.81
2022-10-30T00:33:08.151Z,500.85
2022-10-30T00:33:18.152Z,500.84
2022-10-30T00:33:28.153Z,500.82
2022-10-30T00:33:38.154Z,500.77
2022-10-30T00:33:48.154Z,500.79
2022-10-30T00:33:58.140Z,500.78
2022-10-30T00:34:08.158Z,500.82
2022-10-30T00:34:18.158Z,500.80
2022-10-30T00:34:28.158Z,500.88
2022-10-30T00:34:38.161Z,500.86
2022-10-30T00:34:48.159Z,500.81
2022-10-30T00:34:58.162Z,500.82
2022-10-30T00:35:08.163Z,500.78
2022-10-30T00:35:18.162Z,500.84
2022-10-30T00:35:28.162Z,500.97
2022-10-30T00:35:38.222Z,500.88
2022-10-30T00:35:48.172Z,500.97
2022-10-30T00:35:58.163Z,500.95
2022-10-30T00:36:08.164Z,500.93
2022-10-30T00:36:18.165Z,500.98
2022-10-30T00:36:28.168Z,500.99
2022-10-30T00:36:38.170Z,500.99
2022-10-30T00:36:48.171Z,501.05
2022-10-30T00:36:58.171Z,501.06
2022-10-30T00:37:08.168Z,501.07
2022-10-30T00:37:18.178Z,501.02
2022-10-30T00:37:28.170Z,500.99
2022-10-30T00:37:38.171Z,501.02
2022-10-30T00:37:48.173Z,501.00
2022-10-30T00:37:58.452Z,501.06
2022-10-30T00:38:08.176Z,501.05
2022-10-30T00:38:18.162Z,501.05
2022-10-30T00:38:28.174Z,501.01
2022-10-30T00:38:38.159Z,501.05
2022-10-30T00:38:48.180Z,501.12
2022-10-30T00:38:58.193Z,501.13
2022-10-30T00:39:08.178Z,501.20
2022-10-30T00:39:18.178Z,501.24
2022-10-30T00:39:28.177Z,501.26
2022-10-30T00:39:38.184Z,501.27
2022-10-30T00:39:48.179Z,501.25
2022-10-30T00:39:58.178Z,501.24
2022-10-30T00:40:08.181Z,501.23
2022-10-30T00:40:18.182Z,501.29
2022-10-30T00:40:28.182Z,501.33
2022-10-30T00:40:38.184Z,501.33
2022-10-30T00:40:48.183Z,501.32
2022-10-30T00:40:58.186Z,501.24
2022-10-30T00:41:08.186Z,501.41
2022-10-30T00:41:18.191Z,501.33
2022-10-30T00:41:28.190Z,501.40
2022-10-30T00:41:38.192Z,501.43
2022-10-30T00:41:48.198Z,501.41
2022-10-30T00:41:58.193Z,501.50
2022-10-30T00:42:08.192Z,501.49
2022-10-30T00:42:18.195Z,501.46
2022-10-30T00:42:28.193Z,501.51
2022-10-30T00:42:38.198Z,501.49
2022-10-30T00:42:48.197Z,501.46
2022-10-30T00:42:58.197Z,501.45
2022-10-30T00:43:08.181Z,501.46
2022-10-30T00:43:18.199Z,501.50
2022-10-30T00:43:28.198Z,501.51
2022-10-30T00:43:38.200Z,501.56
2022-10-30T00:43:48.202Z,501.56
2022-10-30T00:43:58.203Z,501.59
2022-10-30T00:44:08.202Z,501.55
2022-10-30T00:44:18.204Z,501.62
2022-10-30T00:44:28.202Z,501.58
2022-10-30T00:44:38.204Z,501.53
2022-10-30T00:44:48.231Z,501.52
2022-10-30T00:44:58.208Z,501.54
2022-10-30T00:45:08.205Z,501.55
2022-10-30T00:45:18.192Z,501.55
2022-10-30T00:45:28.210Z,501.54
2022-10-30T00:45:38.215Z,501.54
2022-10-30T00:45:48.210Z,501.60
2022-10-30T00:45:58.198Z,501.55
2022-10-30T00:46:08.211Z,501.55
2022-10-30T00:46:18.212Z,501.56
2022-10-30T00:46:28.214Z,501.55
2022-10-30T00:46:38.215Z,501.54
2022-10-30T00:46:48.214Z,501.53
2022-10-30T00:46:58.214Z,501.55
2022-10-30T00:47:08.215Z,501.52
2022-10-30T00:47:18.219Z,501.53
2022-10-30T00:47:28.202Z,501.56
2022-10-30T00:47:38.229Z,501.58
2022-10-30T00:47:48.216Z,501.62
2022-10-30T00:47:58.440Z,501.57
2022-10-30T00:48:08.219Z,501.53
2022-10-30T00:48:18.219Z,501.54
2022-10-30T00:48:28.224Z,501.57
2022-10-30T00:48:38.223Z,501.56
2022-10-30T00:48:48.222Z,501.50
2022-10-30T00:48:58.222Z,501.50
2022-10-30T00:49:08.225Z,501.50
2022-10-30T00:49:18.226Z,501.48
2022-10-30T00:49:28.227Z,501.40
2022-10-30T00:49:38.227Z,501.54
2022-10-30T00:49:48.225Z,501.53
2022-10-30T00:49:58.227Z,501.56
2022-10-30T00:50:08.229Z,501.56
2022-10-30T00:50:18.303Z,501.57
2022-10-30T00:50:28.273Z,501.55
2022-10-30T00:50:38.230Z,501.61
2022-10-30T00:50:48.231Z,501.58
2022-10-30T00:50:58.231Z,501.57
2022-10-30T00:51:08.233Z,501.58
2022-10-30T00:51:18.236Z,501.63
2022-10-30T00:51:28.240Z,501.63
2022-10-30T00:51:38.238Z,501.64
2022-10-30T00:51:48.238Z,501.71
2022-10-30T00:51:58.239Z,501.70
2022-10-30T00:52:08.239Z,501.69
2022-10-30T00:52:18.260Z,501.70
2022-10-30T00:52:28.242Z,501.76
2022-10-30T00:52:38.244Z,501.86
2022-10-30T00:52:48.245Z,501.88
2022-10-30T00:52:58.553Z,501.89
2022-10-30T00:53:08.245Z,501.89
2022-10-30T00:53:18.253Z,501.87
2022-10-30T00:53:28.250Z,501.89
2022-10-30T00:53:38.246Z,501.87
2022-10-30T00:53:48.248Z,501.88
2022-10-30T00:53:58.248Z,501.92
2022-10-30T00:54:08.255Z,501.94
2022-10-30T00:54:18.252Z,501.95
2022-10-30T00:54:28.250Z,501.95
2022-10-30T00:54:38.251Z,501.99
2022-10-30T00:54:48.252Z,501.94
2022-10-30T00:54:58.251Z,501.92
2022-10-30T00:55:08.253Z,501.97
2022-10-30T00:55:18.252Z,501.97
2022-10-30T00:55:28.251Z,502.01
2022-10-30T00:55:38.258Z,502.04
2022-10-30T00:55:48.256Z,502.04
2022-10-30T00:55:58.254Z,502.04
2022-10-30T00:56:08.242Z,502.01
2022-10-30T00:56:18.257Z,502.04
2022-10-30T00:56:28.263Z,502.04
2022-10-30T00:56:38.261Z,502.09
2022-10-30T00:56:48.261Z,502.10
2022-10-30T00:56:58.260Z,502.10
2022-10-30T00:57:08.261Z,502.11
2022-10-30T00:57:18.277Z,502.08
2022-10-30T00:57:28.263Z,502.09
2022-10-30T00:57:38.267Z,502.07
2022-10-30T00:57:48.262Z,502.15
2022-10-30T00:57:58.268Z,502.15
2022-10-30T00:58:08.264Z,502.13
2022-10-30T00:58:18.266Z,502.15
2022-10-30T00:58:28.266Z,502.09
2022-10-30T00:58:38.268Z,502.10
2022-10-30T00:58:48.268Z,502.17
2022-10-30T00:58:58.269Z,502.14
2022-10-30T00:59:08.269Z,502.13
2022-10-30T00:59:18.273Z,502.23
2022-10-30T00:59:28.274Z,502.26
2022-10-30T00:59:38.272Z,502.22
2022-10-30T00:59:48.275Z,502.19
2022-10-30T00:59:58.273Z,502.18
2022-10-30T01:00:08.274Z,502.19
2022-10-30T01:00:18.277Z,502.16
2022-10-30T01:00:28.278Z,502.13
2022-10-30T01:00:38.278Z,502.10
2022-10-30T01:00:48.280Z,502.10
2022-10-30T01:00:58.370Z,502.03
2022-10-30T01:01:08.314Z,502.14
2022-10-30T01:01:18.462Z,502.12
2022-10-30T01:01:28.470Z,502.01
2022-10-30T01:01:38.427Z,502.00
2022-10-30T01:01:48.474Z,502.02
2022-10-30T01:01:58.517Z,502.03
2022-10-30T01:02:08.413Z,501.97
2022-10-30T01:02:18.437Z,501.97
2022-10-30T01:02:28.334Z,502.00
2022-10-30T01:02:38.325Z,501.93
2022-10-30T01:02:48.323Z,501.99
2022-10-30T01:02:58.911Z,501.94
2022-10-30T01:03:08.289Z,501.92
2022-10-30T01:03:18.291Z,501.89
2022-10-30T01:03:28.293Z,501.86
2022-10-30T01:03:38.292Z,501.81
2022-10-30T01:03:48.295Z,501.78
2022-10-30T01:03:58.297Z,501.76
2022-10-30T01:04:08.298Z,501.79
2022-10-30T01:04:18.294Z,501.79
2022-10-30T01:04:30.180Z,501.78
2022-10-30T01:04:38.297Z,501.67
2022-10-30T01:04:48.297Z,501.72
2022-10-30T01:04:58.388Z,501.79
2022-10-30T01:05:18.299Z,501.73
2022-10-30T01:05:28.299Z,501.71
2022-10-30T01:05:38.298Z,501.76
2022-10-30T01:05:48.300Z,501.77
2022-10-30T01:05:58.305Z,501.72
2022-10-30T01:06:08.304Z,501.73
2022-10-30T01:06:18.306Z,501.75
2022-10-30T01:06:28.305Z,501.77
2022-10-30T01:06:38.308Z,501.75
2022-10-30T01:06:48.409Z,501.77
2022-10-30T01:06:58.312Z,501.81
2022-10-30T01:07:08.294Z,501.71
2022-10-30T01:07:18.337Z,501.74
2022-10-30T01:07:28.313Z,501.82
2022-10-30T01:07:38.309Z,501.82
2022-10-30T01:07:48.295Z,501.74
2022-10-30T01:07:58.660Z,501.68
2022-10-30T01:08:08.322Z,501.64
2022-10-30T01:08:18.362Z,501.74
2022-10-30T01:08:28.356Z,501.71
2022-10-30T01:08:38.390Z,501.71
2022-10-30T01:08:48.474Z,501.69
2022-10-30T01:09:00.081Z,501.67
2022-10-30T01:09:08.380Z,501.66
2022-10-30T01:09:18.408Z,501.60
2022-10-30T01:09:28.318Z,501.56
2022-10-30T01:09:38.317Z,501.57
2022-10-30T01:09:48.320Z,501.60
2022-10-30T01:09:58.319Z,501.56
2022-10-30T01:10:08.322Z,501.53
2022-10-30T01:10:18.307Z,501.53
2022-10-30T01:10:28.322Z,501.52
2022-10-30T01:10:38.323Z,501.50
2022-10-30T01:10:48.327Z,501.50
2022-10-30T01:10:58.327Z,501.48
2022-10-30T01:11:08.327Z,501.43
2022-10-30T01:11:18.329Z,501.45
2022-10-30T01:11:28.347Z,501.43
2022-10-30T01:11:38.329Z,501.36
2022-10-30T01:11:48.332Z,501.36
2022-10-30T01:11:58.354Z,501.44
2022-10-30T01:12:08.333Z,501.42
2022-10-30T01:12:18.333Z,501.43
2022-10-30T01:12:28.334Z,501.40
2022-10-30T01:12:38.336Z,501.44
2022-10-30T01:12:48.334Z,501.46
2022-10-30T01:12:58.334Z,501.41
2022-10-30T01:13:08.338Z,501.36
2022-10-30T01:13:18.343Z,501.37
2022-10-30T01:13:28.338Z,501.41
2022-10-30T01:13:38.339Z,501.37
2022-10-30T01:13:48.341Z,501.35
2022-10-30T01:13:58.343Z,501.38
2022-10-30T01:14:08.343Z,501.40
2022-10-30T01:14:18.352Z,501.40
2022-10-30T01:14:28.344Z,501.43
2022-10-30T01:14:38.348Z,501.47
2022-10-30T01:14:48.346Z,501.46
2022-10-30T01:14:58.353Z,501.46
2022-10-30T01:15:08.348Z,501.43
2022-10-30T01:15:18.348Z,501.49
2022-10-30T01:15:28.356Z,501.46
2022-10-30T01:15:38.352Z,501.43
2022-10-30T01:15:48.352Z,501.47
2022-10-30T01:15:58.351Z,501.48
2022-10-30T01:16:08.353Z,501.48
2022-10-30T01:16:18.354Z,501.50
2022-10-30T01:16:28.356Z,501.51
2022-10-30T01:16:38.354Z,501.49
2022-10-30T01:16:48.341Z,501.46
2022-10-30T01:16:58.342Z,501.46
2022-10-30T01:17:08.365Z,501.61
2022-10-30T01:17:18.359Z,501.50
2022-10-30T01:17:28.363Z,501.56
2022-10-30T01:17:38.359Z,501.61
2022-10-30T01:17:48.361Z,501.57
2022-10-30T01:17:58.814Z,501.45
2022-10-30T01:18:08.363Z,501.44
2022-10-30T01:18:18.364Z,501.47
2022-10-30T01:18:28.362Z,501.53
2022-10-30T01:18:38.362Z,501.59
2022-10-30T01:18:48.363Z,501.58
2022-10-30T01:18:58.366Z,501.54
2022-10-30T01:19:08.368Z,501.50
2022-10-30T01:19:18.368Z,501.57
2022-10-30T01:19:28.368Z,501.63
2022-10-30T01:19:38.367Z,501.61
2022-10-30T01:19:48.412Z,501.56
2022-10-30T01:19:58.386Z,501.61
2022-10-30T01:20:08.378Z,501.65
2022-10-30T01:20:18.373Z,501.65
2022-10-30T01:20:28.356Z,501.63
2022-10-30T01:20:38.371Z,501.62
2022-10-30T01:20:48.376Z,501.55
2022-10-30T01:20:58.373Z,501.57
2022-10-30T01:21:08.372Z,501.59
2022-10-30T01:21:18.373Z,501.52
2022-10-30T01:21:28.383Z,501.51
2022-10-30T01:21:38.375Z,501.60
2022-10-30T01:21:48.377Z,501.61
2022-10-30T01:21:58.377Z,501.57
2022-10-30T01:22:08.382Z,501.55
2022-10-30T01:22:18.380Z,501.54
2022-10-30T01:22:28.384Z,501.58
2022-10-30T01:22:38.379Z,501.58
2022-10-30T01:22:48.370Z,501.59
2022-10-30T01:22:58.744Z,501.64
2022-10-30T01:23:08.382Z,501.66
2022-10-30T01:23:18.386Z,501.76
2022-10-30T01:23:28.386Z,501.71
2022-10-30T01:23:38.382Z,501.64
2022-10-30T01:23:48.385Z,501.63
2022-10-30T01:23:58.384Z,501.66
2022-10-30T01:24:08.386Z,501.67
2022-10-30T01:24:18.387Z,501.66
2022-10-30T01:24:28.391Z,501.60
2022-10-30T01:24:38.390Z,501.58
2022-10-30T01:24:48.389Z,501.58
2022-10-30T01:24:58.377Z,501.59
2022-10-30T01:25:08.391Z,501.60
2022-10-30T01:25:18.377Z,501.63
2022-10-30T01:25:28.378Z,501.63
2022-10-30T01:25:38.396Z,501.71
2022-10-30T01:25:48.396Z,501.71
2022-10-30T01:25:58.395Z,501.70
2022-10-30T01:26:08.399Z,501.68
2022-10-30T01:26:18.397Z,501.64
2022-10-30T01:26:28.397Z,501.67
2022-10-30T01:26:38.399Z,501.66
2022-10-30T01:26:48.400Z,501.67
2022-10-30T01:26:58.402Z,501.70
2022-10-30T01:27:08.401Z,501.69
2022-10-30T01:27:18.401Z,501.68
2022-10-30T01:27:28.405Z,501.73
2022-10-30T01:27:38.405Z,501.75
2022-10-30T01:27:48.407Z,501.79
2022-10-30T01:27:58.404Z,501.74
2022-10-30T01:28:08.403Z,501.79
2022-10-30T01:28:18.407Z,501.80
2022-10-30T01:28:28.408Z,501.85
2022-10-30T01:28:38.407Z,501.81
2022-10-30T01:28:48.409Z,501.84
2022-10-30T01:28:58.396Z,501.79
2022-10-30T01:29:08.411Z,501.78
2022-10-30T01:29:18.413Z,501.84
2022-10-30T01:29:28.411Z,501.85
2022-10-30T01:29:38.412Z,501.91
2022-10-30T01:29:48.412Z,501.86
2022-10-30T01:29:58.413Z,501.88
2022-10-30T01:30:08.420Z,501.85
2022-10-30T01:30:18.419Z,501.99
2022-10-30T01:30:28.415Z,502.07
2022-10-30T01:30:38.416Z,502.12
2022-10-30T01:30:48.417Z,502.07
2022-10-30T01:30:58.417Z,502.07
2022-10-30T01:31:08.418Z,502.13
2022-10-30T01:31:18.419Z,502.13
2022-10-30T01:31:28.419Z,502.14
2022-10-30T01:31:38.422Z,502.20
2022-10-30T01:31:48.421Z,502.20
2022-10-30T01:31:58.422Z,502.19
2022-10-30T01:32:08.423Z,502.09
2022-10-30T01:32:18.431Z,502.14
2022-10-30T01:32:28.430Z,502.14
2022-10-30T01:32:38.427Z,502.16
2022-10-30T01:32:48.427Z,502.17
2022-10-30T01:32:58.733Z,502.14
2022-10-30T01:33:08.432Z,502.22
2022-10-30T01:33:18.460Z,502.14
2022-10-30T01:33:28.434Z,502.14
2022-10-30T01:33:38.434Z,502.12
2022-10-30T01:33:48.435Z,502.08
2022-10-30T01:33:58.436Z,502.09
2022-10-30T01:34:08.436Z,502.06
2022-10-30T01:34:18.437Z,502.00
2022-10-30T01:34:28.458Z,502.03
2022-10-30T01:34:38.469Z,502.08
2022-10-30T01:34:48.448Z,502.07
2022-10-30T01:34:58.446Z,502.10
2022-10-30T01:35:08.434Z,501.99
2022-10-30T01:35:18.443Z,501.96
2022-10-30T01:35:28.443Z,501.94
2022-10-30T01:35:38.446Z,501.93
2022-10-30T01:35:48.448Z,501.94
2022-10-30T01:35:58.434Z,501.93
2022-10-30T01:36:08.432Z,501.86
2022-10-30T01:36:18.449Z,501.92
2022-10-30T01:36:28.449Z,501.93
2022-10-30T01:36:38.455Z,501.90
2022-10-30T01:36:48.453Z,501.92
2022-10-30T01:36:58.454Z,501.87
2022-10-30T01:37:08.453Z,501.93
2022-10-30T01:37:18.454Z,501.94
2022-10-30T01:37:28.496Z,501.96
2022-10-30T01:37:38.463Z,501.90
2022-10-30T01:37:48.457Z,501.82
2022-10-30T01:37:58.731Z,501.83
2022-10-30T01:38:08.457Z,501.87
2022-10-30T01:38:18.457Z,501.86
2022-10-30T01:38:28.460Z,501.85
2022-10-30T01:38:38.462Z,501.82
2022-10-30T01:38:48.463Z,501.72
2022-10-30T01:38:58.462Z,501.79
2022-10-30T01:39:08.449Z,501.79
2022-10-30T01:39:18.465Z,501.80
2022-10-30T01:39:28.464Z,501.77
2022-10-30T01:39:38.463Z,501.79
2022-10-30T01:39:48.465Z,501.81
2022-10-30T01:39:58.452Z,501.82
2022-10-30T01:40:08.452Z,501.81
2022-10-30T01:40:18.466Z,501.79
2022-10-30T01:40:28.466Z,501.74
2022-10-30T01:40:38.453Z,501.81
2022-10-30T01:40:48.474Z,501.83
2022-10-30T01:40:58.471Z,501.83
2022-10-30T01:41:08.476Z,501.82
2022-10-30T01:41:18.471Z,501.79
2022-10-30T01:41:28.473Z,501.82
2022-10-30T01:41:38.457Z,501.86
2022-10-30T01:41:48.472Z,501.85
2022-10-30T01:41:58.473Z,501.84
2022-10-30T01:42:08.460Z,501.83
2022-10-30T01:42:18.480Z,501.81
2022-10-30T01:42:28.478Z,501.82
2022-10-30T01:42:38.480Z,501.73
2022-10-30T01:42:48.482Z,501.80
2022-10-30T01:42:58.482Z,501.81
2022-10-30T01:43:08.481Z,501.77
2022-10-30T01:43:18.482Z,501.79
2022-10-30T01:43:28.483Z,501.76
2022-10-30T01:43:38.487Z,501.72
2022-10-30T01:43:48.488Z,501.74
2022-10-30T01:43:58.472Z,501.74
2022-10-30T01:44:08.486Z,501.79
2022-10-30T01:44:18.487Z,501.86
2022-10-30T01:44:28.489Z,501.83
2022-10-30T01:44:38.473Z,501.79
2022-10-30T01:44:48.474Z,501.82
2022-10-30T01:44:58.495Z,501.82
2022-10-30T01:45:08.491Z,501.77
2022-10-30T01:45:18.497Z,501.79
2022-10-30T01:45:28.476Z,501.82
2022-10-30T01:45:38.493Z,501.81
2022-10-30T01:45:48.479Z,501.72
2022-10-30T01:45:58.498Z,501.69
2022-10-30T01:46:08.495Z,501.65
2022-10-30T01:46:18.496Z,501.65
2022-10-30T01:46:28.501Z,501.64
2022-10-30T01:46:38.498Z,501.63
2022-10-30T01:46:48.499Z,501.59
2022-10-30T01:46:58.498Z,501.59
2022-10-30T01:47:08.499Z,501.57
2022-10-30T01:47:18.499Z,501.60
2022-10-30T01:47:28.501Z,501.64
2022-10-30T01:47:38.511Z,501.56
2022-10-30T01:47:48.489Z,501.65
2022-10-30T01:47:58.798Z,501.61
2022-10-30T01:48:08.504Z,501.62
2022-10-30T01:48:18.505Z,501.64
2022-10-30T01:48:28.506Z,501.65
2022-10-30T01:48:38.504Z,501.68
2022-10-30T01:48:48.506Z,501.71
2022-10-30T01:48:58.505Z,501.72
2022-10-30T01:49:08.511Z,501.68
2022-10-30T01:49:18.524Z,501.73
2022-10-30T01:49:28.495Z,501.72
2022-10-30T01:49:38.513Z,501.74
2022-10-30T01:49:48.498Z,501.72
2022-10-30T01:49:58.515Z,501.73
2022-10-30T01:50:08.515Z,501.83
2022-10-30T01:50:18.514Z,501.77
2022-10-30T01:50:28.517Z,501.77
2022-10-30T01:50:38.518Z,501.79
2022-10-30T01:50:48.502Z,501.82
2022-10-30T01:50:58.506Z,501.72
2022-10-30T01:51:08.505Z,501.73
2022-10-30T01:51:18.526Z,501.77
2022-10-30T01:51:28.521Z,501.85
2022-10-30T01:51:38.524Z,501.86
2022-10-30T01:51:48.524Z,501.88
2022-10-30T01:51:58.523Z,501.94
2022-10-30T01:52:08.525Z,501.92
2022-10-30T01:52:18.522Z,501.89
2022-10-30T01:52:28.527Z,501.89
2022-10-30T01:52:38.527Z,501.84
2022-10-30T01:52:48.525Z,501.90
2022-10-30T01:52:58.938Z,501.86
2022-10-30T01:53:08.525Z,501.80
2022-10-30T01:53:18.528Z,501.90
2022-10-30T01:53:28.532Z,501.92
2022-10-30T01:53:38.517Z,501.92
2022-10-30T01:53:48.515Z,501.85
2022-10-30T01:53:58.529Z,501.87
2022-10-30T01:54:08.534Z,501.91
2022-10-30T01:54:18.531Z,501.88
2022-10-30T01:54:28.533Z,501.87
2022-10-30T01:54:38.534Z,501.96
2022-10-30T01:54:48.535Z,501.95
2022-10-30T01:54:58.535Z,501.91
2022-10-30T01:55:08.539Z,501.93
2022-10-30T01:55:18.538Z,501.88
2022-10-30T01:55:28.539Z,501.98
2022-10-30T01:55:38.538Z,501.91
2022-10-30T01:55:48.541Z,501.87
2022-10-30T01:55:58.546Z,501.91
2022-10-30T01:56:08.528Z,501.98
2022-10-30T01:56:18.544Z,501.99
2022-10-30T01:56:28.548Z,502.00
2022-10-30T01:56:38.543Z,501.97
2022-10-30T01:56:48.544Z,502.01
2022-10-30T01:56:58.545Z,502.08
2022-10-30T01:57:08.547Z,502.16
2022-10-30T01:57:18.546Z,502.16
2022-10-30T01:57:28.546Z,502.13
2022-10-30T01:57:38.548Z,502.15
2022-10-30T01:57:48.550Z,502.17
2022-10-30T01:57:58.552Z,502.28
2022-10-30T01:58:08.549Z,502.41
2022-10-30T01:58:18.551Z,502.43
2022-10-30T01:58:28.552Z,502.43
2022-10-30T01:58:38.597Z,502.40
2022-10-30T01:58:48.553Z,502.48
2022-10-30T01:58:58.553Z,502.51
2022-10-30T01:59:08.556Z,502.51
2022-10-30T01:59:18.556Z,502.46
2022-10-30T01:59:28.557Z,502.47
2022-10-30T01:59:38.556Z,502.56
2022-10-30T01:59:48.556Z,502.53
2022-10-30T01:59:58.558Z,502.47
2022-10-30T02:00:08.558Z,502.51
2022-10-30T02:00:18.562Z,502.51
2022-10-30T02:00:28.561Z,502.53
2022-10-30T02:00:38.559Z,502.55
2022-10-30T02:00:48.546Z,502.51
2022-10-30T02:00:58.620Z,502.60
2022-10-30T02:01:08.630Z,502.54
2022-10-30T02:01:18.707Z,502.44
2022-10-30T02:01:28.701Z,502.56
2022-10-30T02:01:38.665Z,502.65
2022-10-30T02:01:48.665Z,502.68
2022-10-30T02:01:58.690Z,502.68
2022-10-30T02:02:08.693Z,502.66
2022-10-30T02:02:18.712Z,502.61
2022-10-30T02:02:28.678Z,502.62
2022-10-30T02:02:38.622Z,502.63
2022-10-30T02:02:48.673Z,502.59
2022-10-30T02:02:58.889Z,502.65
2022-10-30T02:03:08.570Z,502.66
2022-10-30T02:03:18.570Z,502.69
2022-10-30T02:03:28.575Z,502.69
2022-10-30T02:03:38.572Z,502.63
2022-10-30T02:03:48.679Z,502.68
2022-10-30T02:03:58.607Z,502.71
2022-10-30T02:04:08.575Z,502.79
2022-10-30T02:04:18.575Z,502.83
2022-10-30T02:04:28.574Z,502.86
2022-10-30T02:04:38.575Z,502.83
2022-10-30T02:04:48.577Z,502.89
2022-10-30T02:04:58.576Z,502.98
2022-10-30T02:05:08.577Z,502.95
2022-10-30T02:05:18.581Z,503.00
2022-10-30T02:05:28.579Z,503.02